createdAt,value
2019-05-30T00:02:18.529Z,99.90
2019-05-30T00:05:23.466Z,99.90
2019-05-30T00:08:27.900Z,99.90
2019-05-30T00:11:32.330Z,99.90
2019-05-30T00:14:36.773Z,99.90
2019-05-30T00:17:41.559Z,99.90
2019-05-30T00:20:45.990Z,99.90
2019-05-30T00:23:50.428Z,99.90
2019-05-30T00:26:56.126Z,99.90
2019-05-30T00:30:01.480Z,99.90
2019-05-30T00:33:07.016Z,99.90
2019-05-30T00:36:11.623Z,99.90
2019-05-30T00:39:16.069Z,99.90
2019-05-30T00:42:20.503Z,99.90
2019-05-30T00:45:24.949Z,99.90
2019-05-30T00:48:29.686Z,99.90
2019-05-30T00:51:34.428Z,99.90
2019-05-30T00:54:38.865Z,99.90
2019-05-30T00:57:43.300Z,99.90
2019-05-30T01:00:47.743Z,99.90
2019-05-30T01:03:52.175Z,99.90
2019-05-30T01:06:56.941Z,99.90
2019-05-30T01:10:01.443Z,99.90
2019-05-30T01:13:07.246Z,99.90
2019-05-30T01:16:11.727Z,99.90
2019-05-30T01:19:16.174Z,99.90
2019-05-30T01:22:20.614Z,99.90
2019-05-30T01:25:25.055Z,99.90
2019-05-30T01:28:29.760Z,99.90
2019-05-30T01:31:34.205Z,99.90
2019-05-30T01:34:38.657Z,99.90
2019-05-30T01:37:43.088Z,99.90
2019-05-30T01:40:47.529Z,99.90
2019-05-30T01:43:51.961Z,99.90
2019-05-30T01:46:56.411Z,99.90
2019-05-30T01:50:00.846Z,99.90
2019-05-30T01:53:06.723Z,99.90
2019-05-30T01:56:11.614Z,99.90
2019-05-30T01:59:16.067Z,99.90
2019-05-30T02:02:20.490Z,99.90
2019-05-30T02:05:25.186Z,99.90
2019-05-30T02:08:29.624Z,99.90
2019-05-30T02:11:34.063Z,99.90
2019-05-30T02:14:38.497Z,99.90
2019-05-30T02:17:42.920Z,99.90
2019-05-30T02:20:47.363Z,99.90
2019-05-30T02:23:52.149Z,99.90
2019-05-30T02:26:56.582Z,99.90
2019-05-30T02:30:04.015Z,99.90
2019-05-30T02:33:09.725Z,99.90
2019-05-30T02:36:13.943Z,99.90
2019-05-30T02:39:18.369Z,99.90
2019-05-30T02:42:23.097Z,99.90
2019-05-30T02:45:27.615Z,99.90
2019-05-30T02:48:32.042Z,99.90
2019-05-30T02:51:36.765Z,99.90
2019-05-30T02:54:41.185Z,99.90
2019-05-30T02:57:45.951Z,99.90
2019-05-30T03:00:50.393Z,99.90
2019-05-30T03:03:54.820Z,99.90
2019-05-30T03:06:59.267Z,99.90
2019-05-30T03:10:10.285Z,99.90
2019-05-30T03:13:14.654Z,99.90
2019-05-30T03:16:19.072Z,99.90
2019-05-30T03:19:23.574Z,99.90
2019-05-30T03:22:28.009Z,99.90
2019-05-30T03:25:32.524Z,99.90
2019-05-30T03:28:36.952Z,99.90
2019-05-30T03:31:42.222Z,99.90
2019-05-30T03:34:46.660Z,99.90
2019-05-30T03:37:51.109Z,99.90
2019-05-30T03:40:55.616Z,99.90
2019-05-30T03:44:00.675Z,99.90
2019-05-30T03:47:08.621Z,99.90
2019-05-30T03:50:17.444Z,99.90
2019-05-30T03:53:21.713Z,99.90
2019-05-30T03:56:39.290Z,99.90
2019-05-30T04:00:02.849Z,99.90
2019-05-30T04:03:43.814Z,99.90
2019-05-30T04:06:52.978Z,99.90
2019-05-30T04:10:00.237Z,99.90
2019-05-30T04:13:17.751Z,99.90
2019-05-30T04:16:21.785Z,99.90
2019-05-30T04:19:26.214Z,99.90
2019-05-30T04:22:30.642Z,99.90
2019-05-30T04:25:35.072Z,99.90
2019-05-30T04:28:39.518Z,99.90
2019-05-30T04:31:43.948Z,99.90
2019-05-30T04:34:48.389Z,99.90
2019-05-30T04:37:52.830Z,99.90
2019-05-30T04:40:57.458Z,99.90
2019-05-30T04:44:01.892Z,99.90
2019-05-30T04:47:06.330Z,99.90
2019-05-30T04:50:12.259Z,99.90
2019-05-30T04:53:18.296Z,99.90
2019-05-30T04:56:22.994Z,99.90
2019-05-30T04:59:27.439Z,99.90
2019-05-30T05:02:32.225Z,99.90
2019-05-30T05:05:36.961Z,99.90
2019-05-30T05:08:41.687Z,99.90
2019-05-30T05:11:46.128Z,99.90
2019-05-30T05:14:50.849Z,99.90
2019-05-30T05:17:55.289Z,99.90
2019-05-30T05:21:02.172Z,99.90
2019-05-30T05:24:05.925Z,99.90
2019-05-30T05:27:10.685Z,99.90
2019-05-30T05:30:16.073Z,99.90
2019-05-30T05:33:20.610Z,99.90
2019-05-30T05:36:25.293Z,99.90
2019-05-30T05:39:29.701Z,99.90
2019-05-30T05:42:34.443Z,99.90
2019-05-30T05:45:38.890Z,99.90
2019-05-30T05:48:43.607Z,99.90
2019-05-30T05:51:48.037Z,99.90
2019-05-30T05:54:52.493Z,99.90
2019-05-30T05:57:56.946Z,99.90
2019-05-30T06:01:01.725Z,99.90
2019-05-30T06:04:13.096Z,99.90
2019-05-30T06:07:12.348Z,99.90
2019-05-30T06:10:17.589Z,99.90
2019-05-30T06:13:22.918Z,99.90
2019-05-30T06:16:28.375Z,99.90
2019-05-30T06:19:45.951Z,99.90
2019-05-30T06:22:39.338Z,99.90
2019-05-30T06:25:43.786Z,99.90
2019-05-30T06:28:48.630Z,99.90
2019-05-30T06:31:53.030Z,99.90
2019-05-30T06:34:57.479Z,99.90
2019-05-30T06:38:01.935Z,99.90
2019-05-30T06:41:06.637Z,99.90
2019-05-30T06:44:11.090Z,99.90
2019-05-30T06:47:15.546Z,99.90
2019-05-30T06:50:20.685Z,99.90
2019-05-30T06:53:25.512Z,99.90
2019-05-30T06:56:29.963Z,99.90
2019-05-30T06:59:34.410Z,99.90
2019-05-30T07:02:38.872Z,99.90
2019-05-30T07:05:43.672Z,99.90
2019-05-30T07:08:48.409Z,99.90
2019-05-30T07:11:52.850Z,99.90
2019-05-30T07:14:57.289Z,99.90
2019-05-30T07:18:01.726Z,99.90
2019-05-30T07:21:06.255Z,99.90
2019-05-30T07:24:10.700Z,99.90
2019-05-30T07:27:15.136Z,99.90
2019-05-30T07:30:20.696Z,99.90
2019-05-30T07:33:25.956Z,99.90
2019-05-30T07:36:30.609Z,99.90
2019-05-30T07:39:37.409Z,99.90
2019-05-30T07:42:41.229Z,99.90
2019-05-30T07:45:56.511Z,99.90
2019-05-30T07:48:52.010Z,99.90
2019-05-30T07:51:56.473Z,99.90
2019-05-30T07:55:00.929Z,99.90
2019-05-30T07:58:05.540Z,99.90
2019-05-30T08:01:10.021Z,99.90
2019-05-30T08:04:14.441Z,99.90
2019-05-30T08:07:18.886Z,99.90
2019-05-30T08:10:23.546Z,99.90
2019-05-30T08:13:28.999Z,99.90
2019-05-30T08:16:33.527Z,99.90
2019-05-30T08:19:38.270Z,99.90
2019-05-30T08:22:42.886Z,99.20
2019-05-30T08:25:47.393Z,99.40
2019-05-30T08:28:51.836Z,99.50
2019-05-30T08:31:56.291Z,99.70
2019-05-30T08:35:00.740Z,99.40
2019-05-30T08:38:05.179Z,99.30
2019-05-30T08:41:09.634Z,99.30
2019-05-30T08:44:14.379Z,99.50
2019-05-30T08:47:18.830Z,99.90
2019-05-30T08:50:23.279Z,98.80
2019-05-30T08:53:28.371Z,99.00
2019-05-30T08:56:33.056Z,98.80
2019-05-30T08:59:38.618Z,98.60
2019-05-30T09:02:43.513Z,98.60
2019-05-30T09:06:03.046Z,97.80
2019-05-30T09:08:54.149Z,98.10
2019-05-30T09:11:58.583Z,98.10
2019-05-30T09:15:03.025Z,98.40
2019-05-30T09:18:07.476Z,97.30
2019-05-30T09:21:11.920Z,98.00
2019-05-30T09:24:16.366Z,97.80
2019-05-30T09:27:20.818Z,98.30
2019-05-30T09:30:25.398Z,97.80
2019-05-30T09:33:30.188Z,97.90
2019-05-30T09:36:34.911Z,98.60
2019-05-30T09:39:40.379Z,96.90
2019-05-30T09:42:46.928Z,98.00
2019-05-30T09:45:51.696Z,98.90
2019-05-30T09:48:56.141Z,99.20
2019-05-30T09:52:00.606Z,99.70
2019-05-30T09:55:07.538Z,99.90
2019-05-30T09:58:12.001Z,99.90
2019-05-30T10:01:16.745Z,99.00
2019-05-30T10:04:21.187Z,99.60
2019-05-30T10:07:25.963Z,97.60
2019-05-30T10:10:30.431Z,97.90
2019-05-30T10:13:35.270Z,98.00
2019-05-30T10:16:39.715Z,96.90
2019-05-30T10:19:45.520Z,96.50
2019-05-30T10:22:52.425Z,94.70
2019-05-30T10:25:57.606Z,96.30
2019-05-30T10:29:02.301Z,95.10
2019-05-30T10:32:06.768Z,96.00
2019-05-30T10:35:13.056Z,94.20
2019-05-30T10:38:19.937Z,94.40
2019-05-30T10:41:23.712Z,94.10
2019-05-30T10:44:28.344Z,95.00
2019-05-30T10:47:32.792Z,94.80
2019-05-30T10:50:37.222Z,92.90
2019-05-30T10:53:41.687Z,93.10
2019-05-30T10:56:47.069Z,92.40
2019-05-30T10:59:52.885Z,91.90
2019-05-30T11:02:57.326Z,91.60
2019-05-30T11:06:34.686Z,91.00
2019-05-30T11:09:44.038Z,91.50
2019-05-30T11:12:50.153Z,91.20
2019-05-30T11:15:55.530Z,93.10
2019-05-30T11:19:00.138Z,94.50
2019-05-30T11:22:04.864Z,93.40
2019-05-30T11:25:09.629Z,94.40
2019-05-30T11:31:25.859Z,94.40
2019-05-30T11:34:30.392Z,95.20
2019-05-30T11:37:34.807Z,93.70
2019-05-30T11:40:40.246Z,95.20
2019-05-30T11:43:44.724Z,93.90
2019-05-30T11:46:49.361Z,93.20
2019-05-30T11:49:53.935Z,93.30
2019-05-30T11:52:58.379Z,91.00
2019-05-30T11:56:02.829Z,90.30
2019-05-30T11:59:07.302Z,91.00
2019-05-30T12:02:12.278Z,89.60
2019-05-30T12:05:17.328Z,85.10
2019-05-30T12:08:21.804Z,87.00
2019-05-30T12:11:26.250Z,85.50
2019-05-30T12:14:30.726Z,84.60
2019-05-30T12:17:35.162Z,88.80
2019-05-30T12:20:39.622Z,85.30
2019-05-30T12:23:44.332Z,84.90
2019-05-30T12:26:48.770Z,89.30
2019-05-30T12:29:54.083Z,89.00
2019-05-30T12:32:58.575Z,87.80
2019-05-30T12:36:02.999Z,90.20
2019-05-30T12:39:08.086Z,90.50
2019-05-30T12:42:12.816Z,90.10
2019-05-30T12:45:19.058Z,90.10
2019-05-30T12:48:23.515Z,84.70
2019-05-30T12:51:28.236Z,88.80
2019-05-30T12:54:32.692Z,87.50
2019-05-30T12:57:37.202Z,84.70
2019-05-30T13:00:42.751Z,78.60
2019-05-30T13:03:47.227Z,81.20
2019-05-30T13:06:53.964Z,82.20
2019-05-30T13:09:58.954Z,78.60
2019-05-30T13:13:04.274Z,78.80
2019-05-30T13:16:09.242Z,81.10
2019-05-30T13:19:13.794Z,86.90
2019-05-30T13:22:18.245Z,84.10
2019-05-30T13:25:23.111Z,84.20
2019-05-30T13:28:27.548Z,84.40
2019-05-30T13:31:32.066Z,86.60
2019-05-30T13:34:36.593Z,84.00
2019-05-30T13:37:41.021Z,84.60
2019-05-30T13:40:45.859Z,82.30
2019-05-30T13:43:50.291Z,81.80
2019-05-30T13:46:54.821Z,83.20
2019-05-30T13:50:00.587Z,85.30
2019-05-30T13:53:05.616Z,82.30
2019-05-30T13:56:10.063Z,83.50
2019-05-30T13:59:14.504Z,77.10
2019-05-30T14:02:18.948Z,84.50
2019-05-30T14:05:23.474Z,80.40
2019-05-30T14:08:40.739Z,77.60
2019-05-30T14:11:34.093Z,77.90
2019-05-30T14:14:38.537Z,80.00
2019-05-30T14:17:43.063Z,83.00
2019-05-30T14:20:47.520Z,81.00
2019-05-30T14:23:51.970Z,82.30
2019-05-30T14:26:56.751Z,82.90
2019-05-30T14:30:02.910Z,84.10
2019-05-30T14:33:08.111Z,80.80
2019-05-30T14:36:14.658Z,85.60
2019-05-30T14:39:18.841Z,86.90
2019-05-30T14:42:23.561Z,86.70
2019-05-30T14:45:28.998Z,86.60
2019-05-30T14:48:33.435Z,87.50
2019-05-30T14:51:38.174Z,90.10
2019-05-30T14:54:42.609Z,90.10
2019-05-30T14:57:47.483Z,90.50
2019-05-30T15:00:51.991Z,90.20
2019-05-30T15:03:56.420Z,90.40
2019-05-30T15:07:00.885Z,88.90
2019-05-30T15:10:08.696Z,88.40
2019-05-30T15:13:13.789Z,89.00
2019-05-30T15:16:18.374Z,90.70
2019-05-30T15:19:22.809Z,88.50
2019-05-30T15:22:27.278Z,88.30
2019-05-30T15:25:31.722Z,89.60
2019-05-30T15:28:36.467Z,90.20
2019-05-30T15:31:40.926Z,89.50
2019-05-30T15:34:45.618Z,88.10
2019-05-30T15:37:50.194Z,86.10
2019-05-30T15:40:54.645Z,85.30
2019-05-30T15:43:59.099Z,85.00
2019-05-30T15:47:03.552Z,85.60
2019-05-30T15:50:11.501Z,85.90
2019-05-30T15:53:17.164Z,84.40
2019-05-30T15:56:21.722Z,83.90
2019-05-30T15:59:26.176Z,83.20
2019-05-30T16:02:30.630Z,84.00
2019-05-30T16:05:35.066Z,84.60
2019-05-30T16:08:39.516Z,86.30
2019-05-30T16:11:43.972Z,84.90
2019-05-30T16:14:48.767Z,87.70
2019-05-30T16:17:53.495Z,88.10
2019-05-30T16:20:57.947Z,86.30
2019-05-30T16:24:02.401Z,87.30
2019-05-30T16:27:06.887Z,87.40
2019-05-30T16:30:18.463Z,88.30
2019-05-30T16:33:20.041Z,84.50
2019-05-30T16:36:24.576Z,83.40
2019-05-30T16:39:29.053Z,85.30
2019-05-30T16:42:33.517Z,86.10
2019-05-30T16:45:37.968Z,86.00
2019-05-30T16:48:42.446Z,86.80
2019-05-30T16:51:46.920Z,86.40
2019-05-30T16:54:51.377Z,86.60
2019-05-30T16:57:55.833Z,89.50
2019-05-30T17:01:01.157Z,87.90
2019-05-30T17:04:05.759Z,90.50
2019-05-30T17:07:10.212Z,88.10
2019-05-30T17:10:24.376Z,89.70
2019-05-30T17:13:23.867Z,90.60
2019-05-30T17:16:28.548Z,90.90
2019-05-30T17:19:32.993Z,90.80
2019-05-30T17:22:37.497Z,91.80
2019-05-30T17:25:42.280Z,91.40
2019-05-30T17:28:46.733Z,91.50
2019-05-30T17:31:51.169Z,91.40
2019-05-30T17:34:55.656Z,91.40
2019-05-30T17:38:00.392Z,91.10
2019-05-30T17:41:04.908Z,90.60
2019-05-30T17:44:09.369Z,91.50
2019-05-30T17:47:14.077Z,92.30
2019-05-30T17:50:19.974Z,91.70
2019-05-30T17:53:25.810Z,91.20
2019-05-30T17:56:30.499Z,91.60
2019-05-30T17:59:34.939Z,92.40
2019-05-30T18:02:39.671Z,91.30
2019-05-30T18:05:44.123Z,92.10
2019-05-30T18:08:48.820Z,91.40
2019-05-30T18:11:53.253Z,91.60
2019-05-30T18:14:57.717Z,92.70
2019-05-30T18:18:02.154Z,92.50
2019-05-30T18:21:06.873Z,92.20
2019-05-30T18:24:11.324Z,92.90
2019-05-30T18:27:15.783Z,93.10
2019-05-30T18:30:23.658Z,93.20
2019-05-30T18:33:28.387Z,93.60
2019-05-30T18:36:33.133Z,93.00
2019-05-30T18:39:37.592Z,93.40
2019-05-30T18:42:42.117Z,93.60
2019-05-30T18:45:47.079Z,94.40
2019-05-30T18:48:51.532Z,94.40
2019-05-30T18:51:55.992Z,94.50
2019-05-30T18:55:00.443Z,94.20
2019-05-30T18:58:07.511Z,94.30
2019-05-30T19:01:11.944Z,94.30
2019-05-30T19:04:16.397Z,94.90
2019-05-30T19:07:21.162Z,94.40
2019-05-30T19:10:26.073Z,95.00
2019-05-30T19:13:31.071Z,95.20
2019-05-30T19:16:36.936Z,96.20
2019-05-30T19:19:41.731Z,96.60
2019-05-30T19:22:46.183Z,97.60
2019-05-30T19:25:50.927Z,96.70
2019-05-30T19:28:55.435Z,96.80
2019-05-30T19:31:59.888Z,96.50
2019-05-30T19:35:06.819Z,98.00
2019-05-30T19:38:11.271Z,98.50
2019-05-30T19:41:15.722Z,99.20
2019-05-30T19:44:20.498Z,99.70
2019-05-30T19:47:24.955Z,99.90
2019-05-30T19:50:30.434Z,99.90
2019-05-30T19:53:34.986Z,99.90
2019-05-30T19:56:41.873Z,99.90
2019-05-30T19:59:45.633Z,99.90
2019-05-30T20:02:50.087Z,99.90
2019-05-30T20:05:54.550Z,99.90
2019-05-30T20:08:58.989Z,99.90
2019-05-30T20:12:08.404Z,99.90
2019-05-30T20:15:12.825Z,99.90
2019-05-30T20:18:17.286Z,99.90
2019-05-30T20:21:21.738Z,99.90
2019-05-30T20:24:26.184Z,99.90
2019-05-30T20:27:30.637Z,99.90
2019-05-30T20:30:35.248Z,99.90
2019-05-30T20:33:40.587Z,99.90
2019-05-30T20:36:45.242Z,99.90
2019-05-30T20:39:49.693Z,99.90
2019-05-30T20:42:54.141Z,99.90
2019-05-30T20:45:58.595Z,99.90
2019-05-30T20:49:03.210Z,99.90
2019-05-30T20:52:07.664Z,99.90
2019-05-30T20:55:12.611Z,99.90
2019-05-30T20:58:17.062Z,99.90
2019-05-30T21:01:21.507Z,99.90
2019-05-30T21:04:26.028Z,99.90
2019-05-30T21:07:30.825Z,99.90
2019-05-30T21:10:37.020Z,99.90
2019-05-30T21:13:42.318Z,99.90
2019-05-30T21:16:49.230Z,99.90
2019-05-30T21:19:53.662Z,99.90
2019-05-30T21:22:58.110Z,99.90
2019-05-30T21:26:02.556Z,99.90
2019-05-30T21:29:07.013Z,99.90
2019-05-30T21:32:11.801Z,99.90
2019-05-30T21:35:17.302Z,99.90
2019-05-30T21:38:21.906Z,99.90
2019-05-30T21:41:26.356Z,99.90
2019-05-30T21:44:30.830Z,99.90
2019-05-30T21:47:35.261Z,99.90
2019-05-30T21:50:43.037Z,99.90
2019-05-30T21:53:45.903Z,99.90
2019-05-30T21:56:50.438Z,99.90
2019-05-30T21:59:54.897Z,99.90
2019-05-30T22:02:59.352Z,99.90
2019-05-30T22:06:04.511Z,99.90
2019-05-30T22:09:10.205Z,99.90
2019-05-30T22:12:14.666Z,99.90
2019-05-30T22:15:19.178Z,99.90
2019-05-30T22:18:23.903Z,99.90
2019-05-30T22:21:28.359Z,99.90
2019-05-30T22:24:31.923Z,99.90
2019-05-30T22:27:36.336Z,99.90
2019-05-30T22:30:40.772Z,99.90
2019-05-30T22:33:45.229Z,99.90
2019-05-30T22:36:50.883Z,99.90
2019-05-30T22:39:55.400Z,99.90
2019-05-30T22:42:59.859Z,99.90
2019-05-30T22:46:04.722Z,99.90
2019-05-30T22:49:09.187Z,99.90
2019-05-30T22:52:13.607Z,99.90
2019-05-30T22:55:18.063Z,99.90
2019-05-30T22:58:22.512Z,99.90
2019-05-30T23:01:27.251Z,99.90
2019-05-30T23:04:31.699Z,99.90
2019-05-30T23:07:36.149Z,99.90
2019-05-30T23:10:40.600Z,99.90
2019-05-30T23:13:45.724Z,99.90
2019-05-30T23:16:50.554Z,99.90
2019-05-30T23:19:55.214Z,99.90
2019-05-30T23:22:59.657Z,99.90
2019-05-30T23:26:04.110Z,99.90
2019-05-30T23:29:08.562Z,99.90
2019-05-30T23:32:13.008Z,99.90
2019-05-30T23:35:17.454Z,99.90
2019-05-30T23:38:21.908Z,99.90
2019-05-30T23:41:26.366Z,99.90
2019-05-30T23:44:30.807Z,99.90
2019-05-30T23:47:35.303Z,99.90
2019-05-30T23:50:39.878Z,99.90
2019-05-30T23:53:44.601Z,99.90
2019-05-30T23:56:50.411Z,99.90
2019-05-30T23:59:55.296Z,99.90
